Big Rapids, Michigan
Current Conditions -  °F | °C
As of 9:34 AM on Friday 28 Nov 2014 (Local Time) from KRQB Reporting Station
Light Snow Light Snow  
Wind Chill: 13°   Ceiling: 2700
Heat Index: 19°   Visibility: 7mi
Dew Point: 17°   Wind: 5mph
Humidity: 89%   Direction: 180°S
Pressure: 30.24"   Gusts: NA
Location:  43.7°N, 85.48°W
Report Text: KRQB 281434Z AUTO 18004KT 7SM -SN OVC027 M07/M09 A3024 RMK AO2 T10701086
Loading
Personal Weather Stations






























Interactive Weather Map New forecast layout! Learn more

10-Day Weather Forecast

Advertisements
Track Severe Weather on mobile